Time;durP1;ratioP1;P1;durP2;ratioP2;P2;SDS_P1;SDS_P2;PMS_P1;PMS_P2;Temp;Humidity;BMP_temperature;BMP_pressure;BME280_temperature;BME280_humidity;BME280_pressure;Samples;Min_cycle;Max_cycle;Signal;HPM_P1;HPM_P2
2022/06/19 00:00:00;;;;;;;19.15;5.82;;;13.70;99.90;;;;;;4977388;28;94597;-38
2022/06/19 00:02:27;;;;;;;12.75;5.25;;;13.70;99.90;;;;;;4976802;28;92766;-34
2022/06/19 00:04:54;;;;;;;19.67;5.22;;;13.70;99.90;;;;;;4978051;28;93841;-34
2022/06/19 00:07:20;;;;;;;12.88;5.03;;;13.70;99.90;;;;;;4977491;28;94572;-34
2022/06/19 00:09:46;;;;;;;17.30;4.90;;;13.70;99.90;;;;;;4977095;28;95067;-34
2022/06/19 00:12:13;;;;;;;19.52;5.93;;;13.60;99.90;;;;;;4978540;28;93687;-33
2022/06/19 00:14:38;;;;;;;14.05;4.00;;;13.60;99.90;;;;;;4976931;28;91457;-32
2022/06/19 00:17:06;;;;;;;21.58;6.28;;;13.60;99.90;;;;;;4977427;28;94833;-34
2022/06/19 00:19:32;;;;;;;23.25;5.05;;;13.60;99.90;;;;;;4977490;28;94789;-35
2022/06/19 00:21:57;;;;;;;16.00;5.38;;;13.60;99.90;;;;;;4976498;28;94950;-33
2022/06/19 00:24:23;;;;;;;14.73;3.95;;;13.50;99.90;;;;;;4978108;28;94137;-34
2022/06/19 00:26:49;;;;;;;15.13;4.70;;;13.50;99.90;;;;;;4976615;28;94657;-35
2022/06/19 00:29:14;;;;;;;13.23;4.47;;;13.60;99.90;;;;;;4977500;28;94885;-37
2022/06/19 00:31:40;;;;;;;15.82;4.68;;;13.50;99.90;;;;;;4977520;28;94624;-35
2022/06/19 00:34:06;;;;;;;19.70;5.60;;;13.50;99.90;;;;;;4976147;28;93386;-35
2022/06/19 00:36:32;;;;;;;9.70;4.95;;;13.60;99.90;;;;;;4976727;28;93926;-33
2022/06/19 00:38:58;;;;;;;8.68;3.88;;;13.50;99.90;;;;;;4976695;28;94464;-36
2022/06/19 00:41:24;;;;;;;11.27;4.18;;;13.50;99.90;;;;;;4976271;28;93040;-33
2022/06/19 00:43:54;;;;;;;11.75;3.92;;;13.50;99.90;;;;;;4977577;28;92530;-34
2022/06/19 00:46:40;;;;;;;23.90;6.00;;;13.50;99.90;;;;;;4976769;28;95973;-33
2022/06/19 00:49:11;;;;;;;15.15;4.07;;;13.50;99.90;;;;;;4976559;28;95495;-35
2022/06/19 00:51:37;;;;;;;19.27;4.85;;;13.50;99.90;;;;;;4977155;28;93277;-33
2022/06/19 00:54:05;;;;;;;12.68;4.28;;;13.50;99.90;;;;;;4977611;28;95218;-39
2022/06/19 00:56:31;;;;;;;15.85;5.13;;;13.50;99.90;;;;;;4976989;28;94695;-35
2022/06/19 00:58:57;;;;;;;16.17;4.90;;;13.50;99.90;;;;;;4976228;28;94426;-35
2022/06/19 01:04:26;;;;;;;10.20;3.65;;;13.50;99.90;;;;;;4937423;28;94100;-33
2022/06/19 01:06:52;;;;;;;11.32;3.70;;;13.50;99.90;;;;;;4937214;28;94861;-34
2022/06/19 01:09:18;;;;;;;19.45;4.70;;;13.50;99.90;;;;;;4937655;28;94210;-39
2022/06/19 01:11:45;;;;;;;18.70;5.18;;;13.50;99.90;;;;;;4936972;28;95139;-33
2022/06/19 01:14:15;;;;;;;9.48;4.35;;;13.60;99.90;;;;;;4937534;28;93302;-34
2022/06/19 01:16:41;;;;;;;14.38;4.05;;;13.50;99.90;;;;;;4937039;28;94745;-35
2022/06/19 01:19:08;;;;;;;11.32;3.72;;;13.60;99.90;;;;;;4937682;28;94708;-37
2022/06/19 01:21:42;;;;;;;15.65;3.92;;;13.60;99.90;;;;;;4937764;28;93694;-34
2022/06/19 01:24:30;;;;;;;23.95;4.20;;;13.60;99.90;;;;;;4919449;28;92906;-34
2022/06/19 01:27:00;;;;;;;12.10;3.75;;;13.60;99.90;;;;;;4936661;28;94958;-34
2022/06/19 01:29:32;;;;;;;17.17;4.57;;;13.60;99.90;;;;;;4937561;28;94597;-33
2022/06/19 01:32:02;;;;;;;12.55;3.33;;;13.60;99.90;;;;;;4937368;28;92129;-35
2022/06/19 01:34:38;;;;;;;12.45;3.72;;;13.70;99.90;;;;;;4937113;28;94389;-35
2022/06/19 01:37:24;;;;;;;15.68;3.75;;;13.70;99.90;;;;;;4936079;28;95993;-34
2022/06/19 01:39:59;;;;;;;13.88;4.10;;;13.70;99.90;;;;;;4936973;28;94102;-36
2022/06/19 01:42:25;;;;;;;16.23;4.70;;;13.70;99.90;;;;;;4937141;28;93996;-35
2022/06/19 01:44:53;;;;;;;15.38;3.10;;;13.80;99.90;;;;;;4936785;28;93126;-35
2022/06/19 01:47:20;;;;;;;12.88;4.65;;;13.80;99.90;;;;;;4939925;28;94446;-39
2022/06/19 01:49:50;;;;;;;11.07;3.78;;;13.90;99.90;;;;;;4922647;28;94366;-34
2022/06/19 01:52:18;;;;;;;14.38;3.95;;;13.90;99.90;;;;;;4941341;28;92541;-34
2022/06/19 01:54:58;;;;;;;13.48;3.97;;;13.90;99.90;;;;;;4923376;28;91460;-33
2022/06/19 01:57:24;;;;;;;7.97;3.25;;;13.90;99.90;;;;;;4940312;28;95415;-33
2022/06/19 01:59:50;;;;;;;24.50;4.10;;;14.00;99.90;;;;;;4939584;28;94010;-33
2022/06/19 02:02:17;;;;;;;8.13;3.55;;;14.00;99.90;;;;;;4939558;28;93108;-34
2022/06/19 02:04:44;;;;;;;17.58;4.70;;;13.90;99.90;;;;;;4940000;28;94646;-34
2022/06/19 02:07:16;;;;;;;14.82;3.28;;;13.90;99.90;;;;;;4954598;28;95072;-36
2022/06/19 02:09:42;;;;;;;9.80;3.35;;;14.00;99.90;;;;;;4940017;28;95849;-34
2022/06/19 02:12:09;;;;;;;19.83;4.40;;;14.00;99.90;;;;;;4939908;28;93478;-34
2022/06/19 02:14:34;;;;;;;9.82;2.80;;;14.00;99.90;;;;;;4940247;28;92268;-38
2022/06/19 02:17:18;;;;;;;7.65;3.30;;;14.00;99.90;;;;;;4939953;28;95706;-34
2022/06/19 02:19:43;;;;;;;7.40;3.35;;;14.00;99.90;;;;;;4940898;28;94597;-35
2022/06/19 02:22:12;;;;;;;5.80;2.97;;;14.00;99.90;;;;;;4940144;28;92868;-36
2022/06/19 02:24:39;;;;;;;6.60;2.70;;;14.00;99.90;;;;;;4939273;28;94260;-35
2022/06/19 02:27:05;;;;;;;8.75;2.70;;;14.00;99.90;;;;;;4938667;28;95776;-39
2022/06/19 02:29:31;;;;;;;10.30;2.92;;;14.00;99.90;;;;;;4940116;28;95299;-37
2022/06/19 02:31:57;;;;;;;6.53;3.08;;;14.00;99.90;;;;;;4939437;28;94428;-37
2022/06/19 02:34:33;;;;;;;4.65;2.60;;;14.00;99.90;;;;;;4940057;28;94193;-39
2022/06/19 02:37:05;;;;;;;11.25;2.80;;;14.00;99.90;;;;;;4939338;28;94442;-33
2022/06/19 02:39:54;;;;;;;11.30;3.03;;;14.00;99.90;;;;;;4940014;28;93944;-35
2022/06/19 02:42:20;;;;;;;8.75;3.55;;;14.00;99.90;;;;;;4940308;28;93385;-36
2022/06/19 02:44:52;;;;;;;7.97;3.25;;;14.00;99.90;;;;;;4940281;28;92942;-34
2022/06/19 02:47:18;;;;;;;14.30;3.85;;;14.00;99.90;;;;;;4939235;28;93712;-34
2022/06/19 02:49:44;;;;;;;9.90;3.65;;;14.00;99.90;;;;;;4939022;28;94629;-35
2022/06/19 02:52:12;;;;;;;16.02;3.95;;;13.90;99.90;;;;;;4939423;28;94881;-34
2022/06/19 02:54:38;;;;;;;9.93;3.90;;;14.00;99.90;;;;;;4939064;28;93594;-37
2022/06/19 02:57:05;;;;;;;14.23;4.47;;;14.00;99.90;;;;;;4938300;28;94879;-35
2022/06/19 02:59:32;;;;;;;13.15;4.38;;;14.00;99.90;;;;;;4938223;28;94140;-36
2022/06/19 03:01:57;;;;;;;11.95;4.22;;;14.10;99.90;;;;;;4939553;28;92852;-34
2022/06/19 03:04:35;;;;;;;8.63;4.20;;;14.10;99.90;;;;;;4939479;28;94195;-34
2022/06/19 03:07:00;;;;;;;13.00;4.40;;;14.10;99.90;;;;;;4938991;28;94654;-35
2022/06/19 03:09:26;;;;;;;13.70;3.78;;;14.10;99.90;;;;;;4940085;28;93646;-35
2022/06/19 03:11:52;;;;;;;5.38;2.97;;;14.10;99.90;;;;;;4938291;28;93345;-34
2022/06/19 03:14:17;;;;;;;11.20;3.17;;;14.20;99.90;;;;;;4939369;28;93383;-33
2022/06/19 03:16:45;;;;;;;16.10;4.32;;;14.10;99.90;;;;;;4938264;28;95996;-33
2022/06/19 03:19:11;;;;;;;21.30;3.63;;;14.20;99.90;;;;;;4938572;28;95562;-38
2022/06/19 03:21:37;;;;;;;14.13;4.25;;;14.20;99.90;;;;;;4938784;28;93160;-36
2022/06/19 03:24:03;;;;;;;8.20;4.45;;;14.10;99.90;;;;;;4939534;28;94965;-32
2022/06/19 03:26:28;;;;;;;14.82;3.25;;;14.20;99.90;;;;;;4938666;28;94556;-32
2022/06/19 03:28:54;;;;;;;10.52;3.25;;;14.20;99.90;;;;;;4938667;28;94652;-33
2022/06/19 03:31:22;;;;;;;16.00;3.33;;;14.10;99.90;;;;;;4939282;28;95341;-36
2022/06/19 03:33:48;;;;;;;12.23;3.97;;;14.20;99.90;;;;;;4938778;28;92335;-33
2022/06/19 03:36:13;;;;;;;13.73;4.65;;;14.20;99.90;;;;;;4939123;28;93559;-35
2022/06/19 03:38:39;;;;;;;16.00;4.28;;;14.30;99.90;;;;;;4937685;28;94403;-34
2022/06/19 03:41:04;;;;;;;6.03;3.97;;;14.20;99.90;;;;;;4939022;28;94305;-33
2022/06/19 03:43:33;;;;;;;9.77;4.20;;;14.20;99.90;;;;;;4939071;28;94812;-32
2022/06/19 03:46:00;;;;;;;14.90;4.15;;;14.20;99.90;;;;;;4938262;28;94256;-35
2022/06/19 03:48:26;;;;;;;18.80;4.07;;;14.20;99.90;;;;;;4938258;28;94487;-37
2022/06/19 03:50:52;;;;;;;12.27;4.07;;;14.20;99.90;;;;;;4938969;28;94469;-35
2022/06/19 03:53:18;;;;;;;11.82;3.30;;;14.20;99.90;;;;;;4938540;28;93096;-36
2022/06/19 03:55:44;;;;;;;4.78;2.70;;;14.20;99.90;;;;;;4938894;28;94271;-33
2022/06/19 03:58:09;;;;;;;7.85;3.53;;;14.30;99.90;;;;;;4938155;28;94474;-35
2022/06/19 04:00:35;;;;;;;12.07;4.57;;;14.30;99.90;;;;;;4937889;28;93067;-36
2022/06/19 04:03:01;;;;;;;14.35;4.22;;;14.20;99.90;;;;;;4938158;28;92358;-37
2022/06/19 04:05:26;;;;;;;12.07;3.80;;;14.20;99.90;;;;;;4937476;28;95756;-38
2022/06/19 04:07:52;;;;;;;7.63;2.88;;;14.20;99.90;;;;;;4938207;28;95510;-35
2022/06/19 04:10:19;;;;;;;18.65;5.00;;;14.10;99.90;;;;;;4938361;28;93733;-34
2022/06/19 04:12:45;;;;;;;13.40;3.88;;;14.10;99.90;;;;;;4937357;28;93258;-36
2022/06/19 04:15:12;;;;;;;17.58;4.20;;;14.10;99.90;;;;;;4938245;28;95168;-35
2022/06/19 04:17:39;;;;;;;13.98;3.88;;;14.10;99.90;;;;;;4920314;28;95584;-33
2022/06/19 04:20:09;;;;;;;8.23;3.47;;;14.30;99.90;;;;;;4938603;28;92419;-33
2022/06/19 04:22:36;;;;;;;7.03;2.88;;;14.20;99.90;;;;;;4937637;28;91965;-35
2022/06/19 04:25:03;;;;;;;9.07;3.35;;;14.10;99.90;;;;;;4937611;28;95169;-39
2022/06/19 04:27:31;;;;;;;8.82;2.42;;;14.00;99.90;;;;;;4938554;28;94448;-34
2022/06/19 04:29:57;;;;;;;14.65;3.42;;;14.10;99.90;;;;;;4938026;28;96095;-33
2022/06/19 04:32:22;;;;;;;9.25;3.35;;;14.00;99.90;;;;;;4937879;28;94174;-38
2022/06/19 04:34:48;;;;;;;11.18;3.67;;;14.00;99.90;;;;;;4937575;28;94767;-33
2022/06/19 04:37:13;;;;;;;7.22;2.97;;;13.90;99.90;;;;;;4937031;28;95725;-34
2022/06/19 04:39:39;;;;;;;10.05;3.72;;;13.90;99.90;;;;;;4937872;28;92207;-35
2022/06/19 04:42:06;;;;;;;11.48;3.95;;;13.90;99.90;;;;;;4937884;28;94325;-35
2022/06/19 04:44:31;;;;;;;14.05;4.03;;;13.90;99.90;;;;;;4937863;28;94699;-37
2022/06/19 04:46:57;;;;;;;11.23;3.35;;;13.90;99.90;;;;;;4938341;28;93189;-36
2022/06/19 04:49:23;;;;;;;7.65;4.22;;;13.90;99.90;;;;;;4937677;28;93176;-34
2022/06/19 04:51:48;;;;;;;5.15;2.65;;;13.90;99.90;;;;;;4937760;28;94541;-35
2022/06/19 04:54:14;;;;;;;12.35;3.45;;;13.90;99.90;;;;;;4936664;28;95685;-33
2022/06/19 04:56:40;;;;;;;8.43;3.75;;;13.90;99.90;;;;;;4937539;28;95344;-33
2022/06/19 04:59:06;;;;;;;8.55;3.15;;;13.90;99.90;;;;;;4937632;28;93069;-36
2022/06/19 05:01:36;;;;;;;9.70;3.33;;;13.90;99.90;;;;;;4936671;28;94914;-35
2022/06/19 05:04:04;;;;;;;10.13;2.42;;;14.00;99.90;;;;;;4936903;28;95429;-34
2022/06/19 05:06:30;;;;;;;;;;;14.00;99.90;;;;;;4937869;28;94164;-37
2022/06/19 05:08:57;;;;;;;8.20;2.20;;;14.10;99.90;;;;;;4939000;28;93501;-33
2022/06/19 05:11:24;;;;;;;7.05;2.78;;;14.10;99.90;;;;;;4937002;28;91997;-37
2022/06/19 05:13:50;;;;;;;9.32;2.53;;;14.20;99.90;;;;;;4923278;28;94805;-36
2022/06/19 05:16:22;;;;;;;10.77;3.28;;;14.20;99.90;;;;;;4937485;28;94484;-33
2022/06/19 05:18:49;;;;;;;4.32;2.42;;;14.20;99.90;;;;;;4937573;28;93213;-33
2022/06/19 05:21:15;;;;;;;4.63;2.25;;;14.30;99.90;;;;;;4939068;28;94596;-33
2022/06/19 05:23:45;;;;;;;15.30;3.03;;;14.30;99.90;;;;;;4940214;28;95122;-36
2022/06/19 05:26:23;;;;;;;6.75;2.55;;;14.50;99.90;;;;;;4940307;28;94748;-36
2022/06/19 05:28:50;;;;;;;8.55;2.90;;;14.60;99.90;;;;;;4940530;28;94232;-34
2022/06/19 05:31:16;;;;;;;8.77;2.47;;;14.80;99.90;;;;;;4940807;28;93576;-37
2022/06/19 05:33:43;;;;;;;7.47;2.88;;;14.80;99.90;;;;;;4940433;28;94494;-33
2022/06/19 05:36:09;;;;;;;6.05;2.63;;;14.90;99.90;;;;;;4940139;28;94617;-37
2022/06/19 05:38:34;;;;;;;11.45;2.97;;;14.80;99.90;;;;;;4940873;28;93450;-39
2022/06/19 05:41:01;;;;;;;4.88;2.03;;;14.70;99.90;;;;;;4940430;28;93399;-35
2022/06/19 05:43:29;;;;;;;11.35;2.58;;;14.70;99.90;;;;;;4939919;28;95680;-37
2022/06/19 05:46:12;;;;;;;5.45;2.45;;;14.80;99.90;;;;;;4940433;28;95436;-35
2022/06/19 05:48:38;;;;;;;6.18;1.92;;;14.70;99.90;;;;;;4939975;28;94304;-37
2022/06/19 05:51:12;;;;;;;5.65;2.00;;;14.70;99.90;;;;;;4940060;28;93252;-35
2022/06/19 05:53:40;;;;;;;13.60;3.28;;;14.70;99.90;;;;;;4940181;28;94763;-33
2022/06/19 05:56:07;;;;;;;7.13;2.95;;;14.70;99.90;;;;;;4939883;28;94177;-35
2022/06/19 05:58:33;;;;;;;13.32;3.65;;;14.60;99.90;;;;;;4940672;28;92256;-37
2022/06/19 06:00:59;;;;;;;7.53;3.00;;;14.70;99.90;;;;;;4940650;28;93929;-32
2022/06/19 06:03:25;;;;;;;11.50;3.13;;;14.60;99.90;;;;;;4939547;28;94925;-33
2022/06/19 06:05:51;;;;;;;10.68;2.92;;;14.50;99.90;;;;;;4940296;28;94652;-34
2022/06/19 06:08:18;;;;;;;10.60;3.00;;;14.50;99.90;;;;;;4940171;28;95181;-37
2022/06/19 06:10:44;;;;;;;7.25;3.00;;;14.40;99.90;;;;;;4939608;28;94875;-34
2022/06/19 06:13:10;;;;;;;13.63;3.22;;;14.50;99.90;;;;;;4939917;28;94825;-36
2022/06/19 06:15:36;;;;;;;9.68;2.78;;;14.70;99.90;;;;;;4940040;28;94596;-34
2022/06/19 06:18:03;;;;;;;7.72;3.63;;;14.80;99.90;;;;;;4939639;28;93855;-40
2022/06/19 06:20:30;;;;;;;5.78;2.72;;;14.70;99.90;;;;;;4932676;28;94307;-34
2022/06/19 06:22:56;;;;;;;12.60;4.38;;;14.70;99.90;;;;;;4939072;28;94864;-34
2022/06/19 06:25:23;;;;;;;10.88;3.20;;;14.80;99.90;;;;;;4939170;28;94912;-37
2022/06/19 06:27:49;;;;;;;6.90;3.72;;;14.80;99.90;;;;;;4940179;28;94456;-36
2022/06/19 06:30:15;;;;;;;10.57;3.72;;;14.80;99.90;;;;;;4939267;28;93947;-36
2022/06/19 06:32:40;;;;;;;7.55;3.50;;;14.70;99.90;;;;;;4937474;28;95727;-36
2022/06/19 06:35:07;;;;;;;4.32;2.85;;;14.70;99.90;;;;;;4939934;28;95946;-35
2022/06/19 06:37:32;;;;;;;17.65;4.07;;;14.60;99.90;;;;;;4939122;28;93703;-34
2022/06/19 06:39:58;;;;;;;5.82;3.17;;;14.60;99.90;;;;;;4940156;28;94403;-36
2022/06/19 06:42:23;;;;;;;11.82;2.25;;;14.50;99.90;;;;;;4938742;28;94626;-34
2022/06/19 06:44:49;;;;;;;5.40;2.10;;;14.40;99.90;;;;;;4939700;28;94892;-39
2022/06/19 06:47:15;;;;;;;8.75;2.78;;;14.40;99.90;;;;;;4922321;28;94856;-34
2022/06/19 06:49:40;;;;;;;3.78;2.70;;;14.30;99.90;;;;;;4939113;28;92701;-37
2022/06/19 06:52:08;;;;;;;8.43;2.63;;;14.20;99.90;;;;;;4939668;28;94770;-34
2022/06/19 06:54:39;;;;;;;5.70;2.92;;;14.20;99.90;;;;;;4939403;28;94389;-35
2022/06/19 06:57:07;;;;;;;11.63;3.55;;;14.10;99.90;;;;;;4940107;28;94347;-34
2022/06/19 06:59:35;;;;;;;9.45;2.75;;;14.20;99.90;;;;;;4938409;28;92902;-35
2022/06/19 07:02:02;;;;;;;7.57;2.75;;;14.10;99.90;;;;;;4936552;28;95278;-38
2022/06/19 07:04:28;;;;;;;14.02;3.35;;;14.10;99.90;;;;;;4937325;28;94572;-36
2022/06/19 07:06:53;;;;;;;8.15;3.10;;;14.00;99.90;;;;;;4937245;28;92225;-32
2022/06/19 07:09:19;;;;;;;11.38;4.93;;;14.10;99.90;;;;;;4937587;28;92730;-36
2022/06/19 07:11:46;;;;;;;10.10;3.40;;;14.20;99.90;;;;;;4937073;28;94549;-38
2022/06/19 07:14:13;;;;;;;15.32;4.13;;;14.10;99.90;;;;;;4937435;28;94528;-34
2022/06/19 07:16:40;;;;;;;10.57;4.15;;;14.10;99.90;;;;;;4937265;28;93284;-35
2022/06/19 07:19:06;;;;;;;8.48;4.00;;;14.10;99.90;;;;;;4937550;28;94995;-38
2022/06/19 07:21:32;;;;;;;15.05;3.85;;;14.10;99.90;;;;;;4936601;28;95787;-36
2022/06/19 07:23:58;;;;;;;10.13;2.85;;;14.10;99.90;;;;;;4936604;28;95364;-34
2022/06/19 07:26:25;;;;;;;13.27;4.00;;;14.10;99.90;;;;;;4938088;28;93668;-35
2022/06/19 07:28:51;;;;;;;20.90;4.07;;;14.10;99.90;;;;;;4937482;28;93992;-35
2022/06/19 07:31:16;;;;;;;8.80;3.50;;;14.20;99.90;;;;;;4936202;28;94806;-37
2022/06/19 07:33:42;;;;;;;5.65;3.10;;;14.30;99.90;;;;;;4937346;28;94537;-33
2022/06/19 07:36:16;;;;;;;13.18;3.75;;;14.30;99.90;;;;;;4936472;28;92992;-33
2022/06/19 07:38:42;;;;;;;9.95;3.72;;;14.20;99.90;;;;;;4937484;28;92689;-33
2022/06/19 07:41:08;;;;;;;11.57;3.22;;;14.30;99.90;;;;;;4936384;28;94635;-35
2022/06/19 07:43:33;;;;;;;8.00;2.90;;;14.20;99.90;;;;;;4936313;28;94535;-37
2022/06/19 07:45:59;;;;;;;4.38;2.60;;;14.20;99.90;;;;;;4936374;28;93863;-33
2022/06/19 07:51:09;;;;;;;10.05;3.92;;;14.20;99.90;;;;;;4936072;28;94885;-35
2022/06/19 07:53:35;;;;;;;9.70;3.78;;;14.30;99.90;;;;;;4936019;28;94640;-35
2022/06/19 07:56:00;;;;;;;14.30;3.28;;;14.30;99.90;;;;;;4936875;28;93661;-35
2022/06/19 07:58:26;;;;;;;7.82;2.90;;;14.30;99.90;;;;;;4938294;28;94601;-34
2022/06/19 08:00:52;;;;;;;10.27;3.20;;;14.30;99.90;;;;;;4937956;28;94638;-35
2022/06/19 08:03:18;;;;;;;11.73;3.20;;;14.40;99.90;;;;;;4938459;28;94467;-33
2022/06/19 08:05:46;;;;;;;9.02;3.47;;;14.40;99.90;;;;;;4938196;28;93311;-36
2022/06/19 08:08:14;;;;;;;;;;;14.40;99.90;;;;;;4938275;28;92998;-36
2022/06/19 08:10:42;;;;;;;12.75;3.15;;;14.30;99.90;;;;;;4938346;28;95595;-35
2022/06/19 08:13:09;;;;;;;13.05;4.75;;;14.20;99.90;;;;;;4937099;28;94443;-32
2022/06/19 08:15:35;;;;;;;10.68;3.08;;;14.20;99.90;;;;;;4936240;28;92714;-39
2022/06/19 08:18:02;;;;;;;10.45;3.13;;;14.30;99.90;;;;;;4938069;28;92773;-35
2022/06/19 08:20:27;;;;;;;8.57;2.97;;;14.30;99.90;;;;;;4938125;28;93650;-33
2022/06/19 08:22:53;;;;;;;11.80;3.03;;;14.30;99.90;;;;;;4937851;28;94175;-34
2022/06/19 08:25:20;;;;;;;9.65;3.70;;;14.40;99.90;;;;;;4938657;28;93547;-34
2022/06/19 08:27:49;;;;;;;15.77;3.43;;;14.40;99.90;;;;;;4938077;28;92254;-35
2022/06/19 08:30:27;;;;;;;6.88;3.15;;;14.50;99.90;;;;;;4937502;28;94430;-35
2022/06/19 08:32:53;;;;;;;7.90;3.30;;;14.50;99.90;;;;;;4938107;28;94926;-34
2022/06/19 08:35:20;;;;;;;10.23;3.80;;;14.60;99.90;;;;;;4938179;28;94162;-35
2022/06/19 08:37:48;;;;;;;9.18;3.47;;;14.70;99.90;;;;;;4937530;28;94226;-35
2022/06/19 08:40:26;;;;;;;;;;;14.70;99.90;;;;;;4937983;28;94488;-35
2022/06/19 08:43:22;;;;;;;7.18;3.30;;;14.70;99.90;;;;;;4938303;28;94134;-36
2022/06/19 08:46:01;;;;;;;5.88;3.22;;;14.70;99.90;;;;;;4937796;28;93998;-37
2022/06/19 08:48:43;;;;;;;7.47;3.20;;;14.70;99.90;;;;;;4937759;28;94385;-33
2022/06/19 08:51:27;;;;;;;7.15;3.53;;;14.80;99.90;;;;;;4936694;28;94907;-33
2022/06/19 08:54:08;;;;;;;9.15;4.20;;;14.80;99.90;;;;;;4937526;28;94740;-36
2022/06/19 08:56:58;;;;;;;8.55;3.65;;;14.80;99.90;;;;;;4936744;28;93368;-35
2022/06/19 08:59:59;;;;;;;8.65;3.72;;;14.90;99.90;;;;;;4938760;28;93362;-33
2022/06/19 09:02:43;;;;;;;8.80;4.00;;;15.00;99.90;;;;;;4937044;28;95667;-36
2022/06/19 09:05:36;;;;;;;11.65;3.45;;;15.00;99.90;;;;;;4937182;28;96007;-35
2022/06/19 09:08:31;;;;;;;8.90;3.33;;;15.00;99.90;;;;;;4937613;28;94492;-37
2022/06/19 09:10:57;;;;;;;8.77;3.53;;;15.10;99.90;;;;;;4937846;28;94426;-34
2022/06/19 09:13:38;;;;;;;15.90;3.95;;;15.10;99.90;;;;;;4937403;28;94773;-34
2022/06/19 09:16:28;;;;;;;6.88;3.97;;;15.00;99.90;;;;;;4937493;28;94537;-33
2022/06/19 09:19:33;;;;;;;12.20;3.70;;;14.90;99.90;;;;;;4937490;28;92630;-35
2022/06/19 09:22:27;;;;;;;14.57;3.38;;;15.00;99.90;;;;;;4936940;28;91510;-35
2022/06/19 09:25:25;;;;;;;12.15;3.10;;;15.00;99.90;;;;;;4937067;28;94802;-35
2022/06/19 09:27:59;;;;;;;12.10;4.38;;;15.00;99.90;;;;;;4936556;28;94591;-40
2022/06/19 09:30:34;;;;;;;13.85;3.75;;;15.00;99.90;;;;;;4937249;28;95182;-35
2022/06/19 09:33:07;;;;;;;8.93;3.90;;;15.00;99.90;;;;;;4937345;28;93190;-35
2022/06/19 09:35:47;;;;;;;8.73;3.75;;;15.10;99.90;;;;;;4919214;28;94718;-34
2022/06/19 09:38:24;;;;;;;13.32;4.22;;;15.10;99.90;;;;;;4937445;28;94687;-35
2022/06/19 09:40:56;;;;;;;5.70;3.40;;;15.10;99.90;;;;;;4936832;28;94378;-34
2022/06/19 09:43:22;;;;;;;8.15;3.80;;;15.20;99.90;;;;;;4937678;28;94878;-34
2022/06/19 09:45:52;;;;;;;6.60;3.88;;;15.10;99.90;;;;;;4936641;28;94837;-34
2022/06/19 09:48:33;;;;;;;13.38;4.72;;;15.00;99.90;;;;;;4937002;28;94835;-36
2022/06/19 09:51:11;;;;;;;13.35;4.55;;;14.90;99.90;;;;;;4937563;28;93801;-33
2022/06/19 09:53:41;;;;;;;15.77;3.92;;;14.90;99.90;;;;;;4936260;28;93267;-36
2022/06/19 09:56:16;;;;;;;7.60;4.90;;;14.80;99.90;;;;;;4936864;28;95744;-33
2022/06/19 09:58:58;;;;;;;6.82;3.25;;;14.90;99.90;;;;;;4936672;28;95010;-35
2022/06/19 10:01:25;;;;;;;8.45;3.70;;;15.00;99.90;;;;;;4936367;28;92277;-36
2022/06/19 10:04:00;;;;;;;8.93;3.43;;;15.10;99.90;;;;;;4936704;28;94614;-36
2022/06/19 10:06:40;;;;;;;10.95;4.22;;;15.20;99.90;;;;;;4937084;28;94688;-35
2022/06/19 10:09:30;;;;;;;15.73;5.30;;;15.10;99.90;;;;;;4940490;28;95041;-38
2022/06/19 10:12:00;;;;;;;13.27;4.57;;;15.20;99.90;;;;;;4939656;28;93838;-35
2022/06/19 10:14:46;;;;;;;11.00;4.68;;;15.10;99.90;;;;;;4940787;28;93315;-37
2022/06/19 10:17:16;;;;;;;9.50;4.32;;;15.10;99.90;;;;;;4939715;28;94964;-35
2022/06/19 10:20:06;;;;;;;11.05;4.90;;;15.10;99.90;;;;;;4940119;28;94637;-36
2022/06/19 10:22:43;;;;;;;8.02;4.22;;;15.10;99.90;;;;;;4939179;28;95038;-36
2022/06/19 10:25:20;;;;;;;10.35;4.70;;;15.00;99.90;;;;;;4940390;28;93468;-36
2022/06/19 10:28:13;;;;;;;18.42;4.97;;;15.10;99.90;;;;;;4939240;28;96580;-35
2022/06/19 10:31:04;;;;;;;7.85;4.75;;;15.20;99.90;;;;;;4938414;28;94555;-39
2022/06/19 10:33:53;;;;;;;8.75;4.97;;;15.10;99.90;;;;;;4936314;28;94070;-36
2022/06/19 10:36:41;;;;;;;17.20;4.32;;;15.00;99.90;;;;;;4936540;28;92234;-37
2022/06/19 10:39:35;;;;;;;6.38;3.33;;;15.00;99.90;;;;;;4937574;28;95412;-37
2022/06/19 10:42:18;;;;;;;11.55;3.70;;;15.00;99.90;;;;;;4937683;28;94558;-39
2022/06/19 10:45:08;;;;;;;5.13;4.10;;;15.00;99.90;;;;;;4937594;28;95002;-33
2022/06/19 10:48:04;;;;;;;7.60;4.43;;;14.90;99.90;;;;;;4937432;28;92154;-36
2022/06/19 10:50:46;;;;;;;8.55;5.60;;;15.00;99.90;;;;;;4936616;28;95768;-38
2022/06/19 10:53:43;;;;;;;11.55;6.63;;;15.00;99.90;;;;;;4938011;28;95257;-36
2022/06/19 10:56:35;;;;;;;10.73;5.57;;;15.20;99.90;;;;;;4938401;28;94665;-35
2022/06/19 10:59:01;;;;;;;15.25;6.07;;;15.30;99.90;;;;;;4936798;28;93437;-36
2022/06/19 11:04:29;;;;;;;11.45;6.97;;;15.40;99.90;;;;;;4937977;28;94393;-33
2022/06/19 11:07:09;;;;;;;12.43;6.85;;;15.30;99.90;;;;;;4937733;28;93142;-35
2022/06/19 11:09:58;;;;;;;16.27;7.95;;;15.10;99.90;;;;;;4938129;28;91462;-39
2022/06/19 11:12:41;;;;;;;9.18;7.30;;;15.00;99.90;;;;;;4925741;28;94620;-35
2022/06/19 11:15:17;;;;;;;14.57;7.55;;;14.90;99.90;;;;;;4937216;28;94476;-33
2022/06/19 11:17:43;;;;;;;13.75;7.20;;;14.90;99.90;;;;;;4936530;28;95113;-39
2022/06/19 11:20:21;;;;;;;11.02;7.32;;;14.90;99.90;;;;;;4936634;28;95504;-32
2022/06/19 11:22:49;;;;;;;13.00;6.80;;;15.00;99.90;;;;;;4951212;28;94830;-35
2022/06/19 11:25:21;;;;;;;11.88;6.43;;;15.00;99.90;;;;;;4936409;28;94714;-34
2022/06/19 11:28:05;;;;;;;17.40;6.28;;;15.10;99.90;;;;;;4937505;28;93104;-33
2022/06/19 11:30:36;;;;;;;6.45;4.95;;;15.20;99.90;;;;;;4936909;28;93098;-33
2022/06/19 11:33:09;;;;;;;12.82;3.75;;;15.20;99.90;;;;;;4936545;28;94996;-36
2022/06/19 11:35:48;;;;;;;9.35;4.30;;;15.20;99.90;;;;;;4936098;28;94397;-36
2022/06/19 11:38:17;;;;;;;9.65;4.78;;;15.20;99.90;;;;;;4937696;28;94280;-37
2022/06/19 11:40:47;;;;;;;5.22;4.28;;;15.20;99.90;;;;;;4936303;28;94647;-37
2022/06/19 11:43:42;;;;;;;9.05;5.47;;;15.10;99.90;;;;;;4933467;28;95887;-35
2022/06/19 11:46:17;;;;;;;9.20;5.22;;;15.20;99.90;;;;;;4930678;28;95935;-34
2022/06/19 11:48:43;;;;;;;10.27;5.95;;;15.10;99.90;;;;;;4937003;28;94203;-37
2022/06/19 11:51:29;;;;;;;6.63;4.93;;;15.10;99.90;;;;;;4936743;28;93004;-33
2022/06/19 11:53:58;;;;;;;12.95;6.43;;;15.30;99.90;;;;;;4936716;28;94830;-34
2022/06/19 11:56:24;;;;;;;8.10;5.85;;;15.30;99.90;;;;;;4936284;28;94244;-36
2022/06/19 11:59:01;;;;;;;10.82;5.88;;;15.40;99.90;;;;;;4936608;28;93259;-37
2022/06/19 12:01:47;;;;;;;6.40;4.50;;;15.40;99.90;;;;;;4936352;28;91481;-38
2022/06/19 12:04:23;;;;;;;14.82;6.60;;;15.30;99.90;;;;;;4927316;28;96398;-36
2022/06/19 12:06:52;;;;;;;7.72;5.05;;;15.30;99.90;;;;;;4935874;28;94452;-35
2022/06/19 12:09:37;;;;;;;6.28;3.72;;;15.20;99.90;;;;;;4935619;28;94918;-35
2022/06/19 12:12:10;;;;;;;6.45;4.22;;;15.20;99.90;;;;;;4936167;28;92693;-37
2022/06/19 12:14:55;;;;;;;9.90;3.55;;;15.10;99.90;;;;;;4936202;28;94771;-34
2022/06/19 12:17:33;;;;;;;9.55;3.58;;;15.10;99.90;;;;;;4936779;28;94541;-34
2022/06/19 12:20:07;;;;;;;6.65;2.97;;;15.10;99.90;;;;;;4936324;28;93182;-33
2022/06/19 12:22:39;;;;;;;5.95;2.20;;;15.10;99.90;;;;;;4933897;28;93401;-38
2022/06/19 12:25:24;;;;;;;2.33;2.05;;;15.10;99.90;;;;;;4935279;28;94946;-35
2022/06/19 12:27:55;;;;;;;3.95;1.80;;;15.00;99.90;;;;;;4935704;28;94178;-37
2022/06/19 12:30:31;;;;;;;2.08;1.50;;;15.00;99.90;;;;;;4935648;28;94066;-34
2022/06/19 12:32:58;;;;;;;2.95;1.98;;;15.00;99.90;;;;;;4936648;28;94032;-34
2022/06/19 12:35:32;;;;;;;5.93;1.77;;;15.10;99.90;;;;;;4923520;28;97304;-33
2022/06/19 12:37:58;;;;;;;4.22;1.27;;;15.10;99.90;;;;;;4915494;28;96300;-36
2022/06/19 12:40:31;;;;;;;4.40;1.90;;;15.20;99.90;;;;;;4934413;28;93890;-34
2022/06/19 12:43:32;;;;;;;3.15;1.30;;;15.40;99.90;;;;;;4922790;28;94510;-35
2022/06/19 12:45:58;;;;;;;2.15;1.58;;;15.80;99.90;;;;;;4921746;28;94984;-35
2022/06/19 12:48:32;;;;;;;2.90;1.60;;;16.30;99.90;;;;;;4919267;28;94530;-38
2022/06/19 12:51:12;;;;;;;7.03;1.77;;;16.50;99.90;;;;;;4936135;28;94198;-37
2022/06/19 12:53:59;;;;;;;3.92;1.50;;;16.40;99.90;;;;;;4923709;28;92013;-33
2022/06/19 12:56:59;;;;;;;3.72;1.55;;;16.50;99.90;;;;;;4934244;28;95737;-36
2022/06/19 13:00:04;;;;;;;3.75;1.48;;;16.40;99.90;;;;;;4928561;28;94422;-37
2022/06/19 13:02:59;;;;;;;5.25;2.00;;;16.50;99.90;;;;;;4966899;22;94536;-34
2022/06/19 13:05:53;;;;;;;2.10;1.27;;;16.40;99.90;;;;;;4934500;28;95077;-33
2022/06/19 13:08:27;;;;;;;2.05;1.17;;;16.30;99.90;;;;;;4934521;28;94309;-33
2022/06/19 13:11:19;;;;;;;2.88;1.30;;;16.30;99.90;;;;;;4934255;28;94562;-37
2022/06/19 13:14:12;;;;;;;2.60;1.60;;;16.20;99.90;;;;;;4915043;28;94151;-34